Time;durP1;ratioP1;P1;durP2;ratioP2;P2;SDS_P1;SDS_P2;PMS_P1;PMS_P2;Temp;Humidity;BMP_temperature;BMP_pressure;BME280_temperature;BME280_humidity;BME280_pressure;Samples;Min_cycle;Max_cycle;Signal;HPM_P1;HPM_P2
2021/06/07 00:01:47;;;;;;;14.77;11.68;;;435.50;2355.20;;;;;;4934480;28;20438;-80
2021/06/07 00:04:13;;;;;;;14.30;11.43;;;435.40;2355.20;;;;;;4951718;28;20027;-75
2021/06/07 00:06:40;;;;;;;13.02;11.60;;;435.30;2355.20;;;;;;4951638;28;20074;-75
2021/06/07 00:09:09;;;;;;;13.18;11.32;;;435.20;2355.20;;;;;;4951568;28;20051;-71
2021/06/07 00:11:37;;;;;;;12.38;10.68;;;410.50;2355.20;;;;;;4950974;28;20034;-77
2021/06/07 00:14:04;;;;;;;13.23;11.52;;;410.40;2355.20;;;;;;4951429;28;20027;-75
2021/06/07 00:16:31;;;;;;;14.25;11.90;;;410.20;2355.20;;;;;;4934456;28;20028;-74
2021/06/07 00:18:57;;;;;;;13.73;11.13;;;410.10;2355.20;;;;;;4951404;28;20035;-77
2021/06/07 00:21:27;;;;;;;12.82;10.95;;;410.00;2355.20;;;;;;4951451;28;20027;-82
2021/06/07 00:23:54;;;;;;;13.88;11.38;;;409.90;2355.20;;;;;;4961892;28;20054;-77
2021/06/07 00:26:20;;;;;;;12.75;11.38;;;409.80;2355.20;;;;;;4951294;28;20016;-76
2021/06/07 00:28:46;;;;;;;14.48;11.73;;;409.70;2355.20;;;;;;4993530;28;20217;-72
2021/06/07 00:31:12;;;;;;;15.38;12.00;;;409.60;2355.20;;;;;;4959380;28;20032;-77
2021/06/07 00:33:39;;;;;;;16.02;12.10;;;409.60;2355.20;;;;;;5012680;28;20039;-76
2021/06/07 00:36:06;;;;;;;13.60;11.63;;;409.60;2355.20;;;;;;4951740;28;20363;-76
2021/06/07 00:38:33;;;;;;;14.80;11.38;;;409.60;2355.20;;;;;;4951364;28;20019;-73
2021/06/07 00:41:03;;;;;;;14.88;11.38;;;409.70;2355.20;;;;;;4951615;29;20053;-72
2021/06/07 00:43:29;;;;;;;13.93;11.07;;;409.70;2355.20;;;;;;4951195;28;20105;-72
2021/06/07 00:45:55;;;;;;;15.43;13.63;;;409.80;2355.20;;;;;;4951360;28;20028;-81
2021/06/07 00:48:21;;;;;;;17.33;12.85;;;409.80;2355.20;;;;;;4951012;28;20488;-83
2021/06/07 00:51:01;;;;;;;15.18;11.90;;;409.70;2355.20;;;;;;4951520;28;20042;-76
2021/06/07 00:53:27;;;;;;;12.43;11.10;;;409.80;2355.20;;;;;;4951039;28;20031;-77
2021/06/07 00:56:02;;;;;;;13.55;11.88;;;409.80;2355.20;;;;;;4949843;28;20505;-71
2021/06/07 00:58:32;;;;;;;14.93;12.23;;;409.70;2355.20;;;;;;4968866;28;20031;-71
2021/06/07 01:01:00;;;;;;;14.23;12.13;;;384.90;2329.60;;;;;;4970331;28;20034;-72
2021/06/07 01:03:29;;;;;;;15.18;12.25;;;384.90;2329.60;;;;;;4970507;28;20058;-71
2021/06/07 01:05:55;;;;;;;17.30;12.35;;;384.90;2329.60;;;;;;4958175;28;20053;-72
2021/06/07 01:08:22;;;;;;;18.17;14.02;;;384.90;2329.60;;;;;;4969914;28;20092;-72
2021/06/07 01:10:50;;;;;;;16.98;14.48;;;384.70;2329.60;;;;;;4970249;28;20030;-73
2021/06/07 01:13:15;;;;;;;19.85;15.18;;;384.80;2329.60;;;;;;4970192;28;20389;-72
2021/06/07 01:15:42;;;;;;;18.35;14.63;;;384.70;2329.60;;;;;;4970357;28;20030;-73
2021/06/07 01:18:10;;;;;;;20.92;15.27;;;384.70;2329.60;;;;;;4969909;28;20027;-73
2021/06/07 01:20:35;;;;;;;21.23;17.40;;;384.60;2329.60;;;;;;5013650;28;20021;-72
2021/06/07 01:23:01;;;;;;;18.38;15.38;;;384.70;2329.60;;;;;;5035868;28;20032;-75
2021/06/07 01:25:33;;;;;;;19.67;15.93;;;384.60;2329.60;;;;;;5047628;28;20025;-72
2021/06/07 01:28:00;;;;;;;18.15;15.13;;;384.60;2329.60;;;;;;5019985;28;20158;-72
2021/06/07 01:30:29;;;;;;;17.45;15.45;;;384.60;2329.60;;;;;;4977756;28;20023;-71
2021/06/07 01:32:55;;;;;;;18.35;14.45;;;384.60;2329.60;;;;;;5019158;28;20021;-72
2021/06/07 01:35:21;;;;;;;17.15;13.63;;;384.60;2329.60;;;;;;4996967;28;20099;-73
2021/06/07 01:37:48;;;;;;;18.52;14.20;;;384.60;2329.60;;;;;;5016708;28;20034;-72
2021/06/07 01:40:19;;;;;;;15.50;13.77;;;384.60;2329.60;;;;;;4972974;28;20027;-72
2021/06/07 01:42:44;;;;;;;17.92;13.75;;;384.50;2329.60;;;;;;4973210;28;20027;-71
2021/06/07 01:45:12;;;;;;;16.67;13.55;;;384.60;2329.60;;;;;;4972946;28;20563;-70
2021/06/07 01:47:38;;;;;;;15.80;13.77;;;384.60;2329.60;;;;;;4972972;28;20033;-72
2021/06/07 01:50:06;;;;;;;17.52;13.15;;;384.50;2329.60;;;;;;5023414;28;20032;-74
2021/06/07 01:52:33;;;;;;;17.05;13.18;;;384.60;2329.60;;;;;;4977682;28;20076;-74
2021/06/07 01:55:00;;;;;;;15.73;12.65;;;384.60;2329.60;;;;;;4972884;28;20047;-72
2021/06/07 01:57:26;;;;;;;13.55;11.90;;;384.50;2329.60;;;;;;4973043;28;20073;-73
2021/06/07 01:59:52;;;;;;;15.23;12.90;;;384.50;2329.60;;;;;;4972797;28;20019;-72
2021/06/07 02:02:18;;;;;;;15.75;12.85;;;384.40;2329.60;;;;;;4972730;28;20031;-73
2021/06/07 02:04:43;;;;;;;15.93;13.38;;;384.50;2329.60;;;;;;4969930;28;20035;-73
2021/06/07 02:07:09;;;;;;;15.30;12.85;;;384.40;2329.60;;;;;;4965285;28;20037;-71
2021/06/07 02:09:41;;;;;;;14.93;12.23;;;384.40;2329.60;;;;;;4972455;28;20065;-72
2021/06/07 02:12:08;;;;;;;14.68;12.43;;;384.40;2329.60;;;;;;4972730;28;20065;-72
2021/06/07 02:14:34;;;;;;;17.25;12.05;;;384.40;2329.60;;;;;;4972514;28;20094;-73
2021/06/07 02:17:00;;;;;;;15.35;12.73;;;384.40;2329.60;;;;;;4972654;28;20046;-73
2021/06/07 02:19:26;;;;;;;16.65;13.35;;;384.40;2329.60;;;;;;4955119;28;20027;-72
2021/06/07 02:21:51;;;;;;;14.93;12.73;;;384.40;2329.60;;;;;;4973923;28;20027;-73
2021/06/07 02:24:17;;;;;;;16.38;13.85;;;384.40;2329.60;;;;;;5000270;28;20039;-79
2021/06/07 02:26:43;;;;;;;16.45;13.77;;;384.40;2329.60;;;;;;4987116;28;20043;-77
2021/06/07 02:29:12;;;;;;;15.77;13.05;;;384.40;2329.60;;;;;;4963940;28;20503;-73
2021/06/07 02:31:39;;;;;;;15.70;13.27;;;384.40;2329.60;;;;;;4955006;28;20137;-73
2021/06/07 02:34:08;;;;;;;14.75;12.55;;;384.40;2329.60;;;;;;4971975;28;20034;-74
2021/06/07 02:36:36;;;;;;;16.00;13.43;;;384.40;2329.60;;;;;;4972189;28;20496;-78
2021/06/07 02:39:05;;;;;;;17.48;13.07;;;384.40;2329.60;;;;;;4972607;28;20540;-73
2021/06/07 02:41:30;;;;;;;15.05;12.65;;;384.40;2329.60;;;;;;4972205;28;20023;-77
2021/06/07 02:43:56;;;;;;;14.23;12.73;;;384.40;2329.60;;;;;;4972358;28;20081;-76
2021/06/07 02:46:22;;;;;;;13.05;11.32;;;384.50;2329.60;;;;;;4972087;28;20027;-73
2021/06/07 02:48:48;;;;;;;12.55;10.32;;;384.50;2329.60;;;;;;4972116;28;20084;-77
2021/06/07 02:51:15;;;;;;;13.25;10.68;;;384.50;2329.60;;;;;;4972169;28;20035;-76
2021/06/07 02:53:41;;;;;;;13.32;10.38;;;384.50;2329.60;;;;;;4971630;28;20055;-72
2021/06/07 02:56:07;;;;;;;13.30;11.30;;;384.50;2329.60;;;;;;4972061;28;20504;-81
2021/06/07 02:58:33;;;;;;;12.57;10.38;;;384.50;2329.60;;;;;;4972185;28;20073;-79
2021/06/07 03:01:09;;;;;;;11.55;10.35;;;384.40;2329.60;;;;;;4954687;28;20060;-70
2021/06/07 03:03:35;;;;;;;12.35;10.93;;;384.40;2329.60;;;;;;4972003;28;20366;-78
2021/06/07 03:06:02;;;;;;;12.02;10.63;;;384.40;2329.60;;;;;;4961472;28;20450;-77
2021/06/07 03:08:30;;;;;;;13.27;10.98;;;384.50;2329.60;;;;;;4971844;28;20019;-81
2021/06/07 03:10:59;;;;;;;12.55;10.68;;;384.50;2329.60;;;;;;4971729;28;20027;-73
2021/06/07 03:13:25;;;;;;;13.38;10.80;;;384.50;2329.60;;;;;;4971944;28;20039;-73
2021/06/07 03:15:53;;;;;;;13.68;11.55;;;384.60;2329.60;;;;;;4971981;28;20031;-76
2021/06/07 03:18:20;;;;;;;15.90;11.68;;;384.50;2329.60;;;;;;4971720;28;20021;-76
2021/06/07 03:20:46;;;;;;;19.73;14.40;;;384.50;2329.60;;;;;;4971697;28;20125;-76
2021/06/07 03:23:15;;;;;;;19.15;13.63;;;384.40;2329.60;;;;;;5001189;28;20034;-81
2021/06/07 03:25:43;;;;;;;18.23;14.73;;;384.50;2329.60;;;;;;4971554;28;20566;-75
2021/06/07 03:28:08;;;;;;;13.45;11.70;;;384.40;2329.60;;;;;;4977807;28;20165;-79
2021/06/07 03:30:36;;;;;;;13.73;10.80;;;384.40;2329.60;;;;;;4971590;28;20465;-73
2021/06/07 03:33:02;;;;;;;12.82;10.38;;;384.40;2329.60;;;;;;4971348;28;20511;-71
2021/06/07 03:35:28;;;;;;;13.93;11.27;;;384.40;2329.60;;;;;;4971470;28;20099;-71
2021/06/07 03:37:54;;;;;;;15.80;10.73;;;384.40;2329.60;;;;;;4971494;28;20430;-75
2021/06/07 03:40:26;;;;;;;14.50;10.80;;;384.40;2329.60;;;;;;4971504;28;20026;-75
2021/06/07 03:42:51;;;;;;;12.63;11.07;;;384.40;2329.60;;;;;;4971422;28;20019;-77
2021/06/07 03:45:18;;;;;;;12.20;10.75;;;384.40;2329.60;;;;;;4971022;28;20436;-81
2021/06/07 03:47:45;;;;;;;13.98;10.48;;;384.50;2329.60;;;;;;4953046;28;20027;-72
2021/06/07 03:50:13;;;;;;;12.52;10.50;;;384.60;2329.60;;;;;;4970788;28;20027;-72
2021/06/07 03:52:40;;;;;;;13.75;10.65;;;384.50;2329.60;;;;;;4962788;28;20023;-77
2021/06/07 03:55:09;;;;;;;15.63;10.80;;;384.50;2329.60;;;;;;5002205;28;20048;-72
2021/06/07 03:57:35;;;;;;;14.63;10.48;;;384.50;2329.60;;;;;;5031270;28;20394;-76
2021/06/07 04:00:04;;;;;;;15.13;10.85;;;384.50;2329.60;;;;;;4978811;28;20027;-72
2021/06/07 04:02:29;;;;;;;14.85;10.57;;;384.60;2329.60;;;;;;4951676;28;20034;-76
2021/06/07 04:04:55;;;;;;;12.27;10.27;;;384.70;2329.60;;;;;;4954843;28;20031;-72
2021/06/07 04:07:21;;;;;;;14.43;10.73;;;384.70;2329.60;;;;;;4964925;28;20031;-71
2021/06/07 04:09:47;;;;;;;12.85;10.90;;;384.90;2329.60;;;;;;4971129;28;20058;-72
2021/06/07 04:12:13;;;;;;;13.05;10.25;;;409.60;2355.20;;;;;;4970764;28;20042;-73
2021/06/07 04:14:39;;;;;;;11.38;9.98;;;409.70;2355.20;;;;;;4970801;28;20034;-72
2021/06/07 04:17:05;;;;;;;12.93;10.32;;;409.90;2355.20;;;;;;4970896;28;20031;-77
2021/06/07 04:19:31;;;;;;;13.00;10.98;;;409.90;2355.20;;;;;;4970564;28;20072;-74
2021/06/07 04:21:57;;;;;;;15.23;11.35;;;409.90;2355.20;;;;;;4974963;28;20112;-74
2021/06/07 04:24:23;;;;;;;15.02;12.00;;;410.00;2355.20;;;;;;4995619;28;20388;-81
2021/06/07 04:26:48;;;;;;;13.73;12.07;;;410.10;2355.20;;;;;;4984193;28;20144;-76
2021/06/07 04:29:14;;;;;;;14.32;12.43;;;410.20;2355.20;;;;;;4963017;28;20031;-81
2021/06/07 04:31:40;;;;;;;19.27;13.20;;;410.20;2355.20;;;;;;4970299;28;20113;-81
2021/06/07 04:34:05;;;;;;;17.40;13.60;;;410.30;2355.20;;;;;;4970632;28;20069;-73
2021/06/07 04:36:31;;;;;;;19.65;13.65;;;410.40;2355.20;;;;;;4970596;28;20564;-70
2021/06/07 04:38:57;;;;;;;18.40;14.25;;;435.20;2355.20;;;;;;4970596;28;20035;-71
2021/06/07 04:41:23;;;;;;;16.67;13.27;;;435.20;2355.20;;;;;;4970607;28;20035;-81
2021/06/07 04:43:48;;;;;;;19.80;12.88;;;435.30;2355.20;;;;;;4953164;28;20033;-75
2021/06/07 04:46:14;;;;;;;19.23;13.23;;;435.50;2355.20;;;;;;4970608;28;20460;-75
2021/06/07 04:48:40;;;;;;;20.45;13.80;;;435.60;2355.20;;;;;;4952894;28;20027;-77
2021/06/07 04:51:06;;;;;;;23.05;14.93;;;435.70;2355.20;;;;;;4952999;28;20123;-71
2021/06/07 04:53:32;;;;;;;22.63;17.10;;;435.90;2355.20;;;;;;4952937;28;20035;-72
2021/06/07 04:55:57;;;;;;;23.50;16.67;;;435.90;2355.20;;;;;;4970310;28;20051;-78
2021/06/07 04:58:27;;;;;;;23.02;16.30;;;435.90;2355.20;;;;;;4971937;28;20528;-74
2021/06/07 05:00:59;;;;;;;28.38;19.75;;;436.10;2355.20;;;;;;4973287;28;20493;-78
2021/06/07 05:03:26;;;;;;;26.80;19.00;;;435.80;2355.20;;;;;;4970904;28;20058;-74
2021/06/07 05:05:54;;;;;;;32.92;20.15;;;436.10;2355.20;;;;;;4960521;28;20093;-73
2021/06/07 05:08:20;;;;;;;29.17;20.90;;;460.80;2380.80;;;;;;4973706;28;20027;-71
2021/06/07 05:10:46;;;;;;;29.67;19.80;;;460.90;2380.80;;;;;;4973726;28;20038;-73
2021/06/07 05:13:12;;;;;;;26.77;20.67;;;461.20;2380.80;;;;;;4973484;28;20031;-73
2021/06/07 05:15:38;;;;;;;29.90;21.58;;;461.40;2380.80;;;;;;4973678;28;20070;-73
2021/06/07 05:18:05;;;;;;;29.90;20.88;;;461.40;2380.80;;;;;;4973493;28;20019;-70
2021/06/07 05:20:30;;;;;;;27.38;19.63;;;461.60;2380.80;;;;;;4973556;28;20161;-73
2021/06/07 05:22:58;;;;;;;26.92;19.88;;;486.40;2380.80;;;;;;5003151;28;20511;-70
2021/06/07 05:25:25;;;;;;;29.75;20.88;;;486.50;2380.80;;;;;;5018776;28;20023;-74
2021/06/07 05:27:52;;;;;;;27.85;21.05;;;486.60;2380.80;;;;;;5036962;28;20017;-71
2021/06/07 05:30:19;;;;;;;29.65;20.70;;;486.70;2380.80;;;;;;4993315;28;20073;-70
2021/06/07 05:32:45;;;;;;;26.38;19.92;;;486.70;2380.80;;;;;;5007716;28;20031;-72
2021/06/07 05:35:13;;;;;;;30.08;20.15;;;487.30;2380.80;;;;;;4967669;28;20027;-70
2021/06/07 05:37:39;;;;;;;29.25;19.45;;;512.50;2380.80;;;;;;4970836;28;20055;-71
2021/06/07 05:40:08;;;;;;;25.75;18.13;;;537.90;2406.40;;;;;;4970202;28;20050;-72
2021/06/07 05:42:35;;;;;;;25.85;17.58;;;538.30;2406.40;;;;;;4971850;28;20424;-75
2021/06/07 05:45:03;;;;;;;25.63;18.30;;;563.50;2432.00;;;;;;4971439;28;20023;-71
2021/06/07 05:47:28;;;;;;;25.05;18.35;;;563.90;2432.00;;;;;;4972401;28;20034;-70
2021/06/07 05:49:54;;;;;;;25.52;19.65;;;588.80;2432.00;;;;;;4968866;28;20076;-70
2021/06/07 05:52:20;;;;;;;24.95;18.17;;;564.10;2432.00;;;;;;4971211;28;20106;-70
2021/06/07 05:54:45;;;;;;;23.15;16.85;;;564.10;2432.00;;;;;;4971839;28;20497;-70
2021/06/07 05:57:11;;;;;;;21.23;16.75;;;589.20;2432.00;;;;;;4970066;28;20066;-70
2021/06/07 05:59:37;;;;;;;19.52;15.88;;;589.50;2432.00;;;;;;4971491;28;20430;-71
2021/06/07 06:02:06;;;;;;;21.80;16.08;;;589.70;2432.00;;;;;;4970697;28;20030;-74
2021/06/07 06:04:32;;;;;;;20.00;16.20;;;589.40;2432.00;;;;;;4970530;28;20015;-70
2021/06/07 06:06:59;;;;;;;19.05;16.33;;;589.30;2432.00;;;;;;4970753;28;20109;-71
2021/06/07 06:09:25;;;;;;;21.25;16.10;;;589.00;2432.00;;;;;;4968897;28;20125;-72
2021/06/07 06:11:50;;;;;;;22.55;15.82;;;589.20;2432.00;;;;;;4971340;28;20435;-70
2021/06/07 06:14:16;;;;;;;23.23;16.25;;;589.10;2432.00;;;;;;4970934;28;20106;-73
2021/06/07 06:16:42;;;;;;;28.60;21.95;;;589.10;2432.00;;;;;;4970026;28;20370;-72
2021/06/07 06:19:10;;;;;;;26.90;18.13;;;589.40;2432.00;;;;;;4960193;28;20054;-71
2021/06/07 06:21:38;;;;;;;18.70;15.50;;;589.50;2432.00;;;;;;4952175;28;20028;-70
2021/06/07 06:24:05;;;;;;;21.98;15.85;;;589.70;2432.00;;;;;;4984546;28;20546;-70
2021/06/07 06:26:31;;;;;;;20.27;15.07;;;589.70;2432.00;;;;;;4965898;28;20126;-71
2021/06/07 06:28:56;;;;;;;24.02;18.38;;;614.80;2432.00;;;;;;4973221;28;20448;-70
2021/06/07 06:31:22;;;;;;;20.65;15.27;;;614.90;2432.00;;;;;;4969985;28;20100;-73
2021/06/07 06:33:48;;;;;;;21.55;16.73;;;615.00;2432.00;;;;;;4964832;28;20049;-71
2021/06/07 06:36:13;;;;;;;18.27;15.00;;;615.10;2432.00;;;;;;4964069;28;20054;-74
2021/06/07 06:38:39;;;;;;;19.98;15.63;;;615.30;2432.00;;;;;;4965460;28;20027;-71
2021/06/07 06:41:05;;;;;;;19.02;14.27;;;640.00;2432.00;;;;;;4953125;28;20447;-70
2021/06/07 06:43:32;;;;;;;20.10;15.02;;;640.00;2432.00;;;;;;4952756;28;20034;-71
2021/06/07 06:45:58;;;;;;;19.75;14.43;;;640.20;2432.00;;;;;;4952942;28;20027;-71
2021/06/07 06:48:25;;;;;;;19.70;15.68;;;640.50;2432.00;;;;;;4953879;28;20485;-73
2021/06/07 06:50:51;;;;;;;21.92;15.75;;;640.50;2432.00;;;;;;4967559;28;20027;-77
2021/06/07 06:53:20;;;;;;;18.02;15.05;;;615.20;2432.00;;;;;;4967489;28;20033;-78
2021/06/07 06:55:48;;;;;;;20.67;15.45;;;640.00;2432.00;;;;;;4967773;28;20031;-73
2021/06/07 06:58:14;;;;;;;18.25;14.98;;;640.10;2432.00;;;;;;4968620;28;20496;-72
2021/06/07 07:00:41;;;;;;;19.25;15.60;;;640.00;2432.00;;;;;;4969340;28;20027;-74
2021/06/07 07:03:09;;;;;;;18.30;15.13;;;615.00;2432.00;;;;;;4970146;28;20113;-77
2021/06/07 07:05:36;;;;;;;19.30;15.77;;;640.10;2432.00;;;;;;4961382;28;20551;-71
2021/06/07 07:08:02;;;;;;;17.95;15.73;;;615.30;2432.00;;;;;;4968305;28;20062;-73
2021/06/07 07:10:28;;;;;;;16.65;14.93;;;640.10;2432.00;;;;;;4962290;28;20042;-73
2021/06/07 07:12:54;;;;;;;21.10;15.15;;;640.40;2432.00;;;;;;4970036;28;20113;-72
2021/06/07 07:15:21;;;;;;;25.50;20.63;;;640.90;2432.00;;;;;;4971095;28;20023;-71
2021/06/07 07:17:47;;;;;;;38.65;29.45;;;665.60;2432.00;;;;;;4969925;28;20485;-72
2021/06/07 07:20:13;;;;;;;16.90;15.10;;;665.90;2432.00;;;;;;4970343;28;20027;-74
2021/06/07 07:22:39;;;;;;;17.83;14.70;;;666.00;2432.00;;;;;;4988680;28;20049;-80
2021/06/07 07:25:08;;;;;;;18.10;14.00;;;665.90;2432.00;;;;;;4973233;28;20022;-72
2021/06/07 07:27:36;;;;;;;18.98;14.02;;;666.20;2432.00;;;;;;4992902;28;20021;-73
2021/06/07 07:30:08;;;;;;;18.00;14.30;;;666.50;2432.00;;;;;;4958269;28;20039;-74
2021/06/07 07:32:38;;;;;;;21.08;14.27;;;691.20;2432.00;;;;;;4951640;28;20041;-76
2021/06/07 07:35:04;;;;;;;;;;;666.50;2432.00;;;;;;4952288;28;20548;-72
2021/06/07 07:37:30;;;;;;;81.30;21.63;;;691.30;2432.00;;;;;;4951896;28;19907;-74
2021/06/07 07:39:56;;;;;;;18.85;13.65;;;691.20;2432.00;;;;;;4952165;28;20474;-74
2021/06/07 07:42:22;;;;;;;15.43;13.10;;;666.50;2432.00;;;;;;4952114;28;20103;-72
2021/06/07 07:44:48;;;;;;;152.13;27.42;;;691.20;2432.00;;;;;;4952066;28;20172;-74
2021/06/07 07:47:14;;;;;;;630.20;88.47;;;691.80;2432.00;;;;;;4965466;28;20069;-74
2021/06/07 07:49:40;;;;;;;1150.40;188.60;;;717.30;2432.00;;;;;;4968253;28;20019;-74
2021/06/07 07:52:07;;;;;;;85.47;20.63;;;742.50;2432.00;;;;;;4967506;28;20465;-74
2021/06/07 07:54:34;;;;;;;127.97;27.52;;;742.80;2432.00;;;;;;4960396;28;20047;-75
2021/06/07 07:57:00;;;;;;;93.57;30.90;;;743.10;2432.00;;;;;;4950861;28;20390;-76
2021/06/07 07:59:26;;;;;;;239.98;43.25;;;743.00;2432.00;;;;;;4951749;28;20020;-75
2021/06/07 08:01:52;;;;;;;163.90;30.15;;;743.00;2432.00;;;;;;4951503;28;20426;-74
2021/06/07 08:04:18;;;;;;;164.02;30.08;;;743.00;2432.00;;;;;;4954023;28;20121;-76
2021/06/07 08:06:44;;;;;;;74.53;20.88;;;743.30;2432.00;;;;;;4960507;28;20058;-75
2021/06/07 08:09:11;;;;;;;13.23;10.90;;;768.00;2432.00;;;;;;4970773;28;20500;-76
2021/06/07 08:11:37;;;;;;;75.38;18.50;;;743.30;2432.00;;;;;;4970914;28;20037;-74
2021/06/07 08:14:04;;;;;;;103.70;22.15;;;743.30;2432.00;;;;;;4970808;28;20039;-75
2021/06/07 08:16:30;;;;;;;122.78;24.15;;;768.30;2432.00;;;;;;4970790;28;20026;-76
2021/06/07 08:18:55;;;;;;;52.25;15.90;;;768.60;2432.00;;;;;;4970775;28;20459;-74
2021/06/07 08:21:21;;;;;;;161.63;29.50;;;768.90;2406.40;;;;;;4970699;28;20102;-75
2021/06/07 08:23:47;;;;;;;147.90;28.52;;;768.90;2406.40;;;;;;5000556;28;20030;-75
2021/06/07 08:26:13;;;;;;;72.18;17.42;;;793.70;2380.80;;;;;;4970391;28;20027;-74
2021/06/07 08:28:39;;;;;;;46.17;14.40;;;793.70;2380.80;;;;;;5011734;28;20031;-76
2021/06/07 08:31:04;;;;;;;14.13;10.40;;;793.70;2380.80;;;;;;4970702;28;20053;-75
2021/06/07 08:33:33;;;;;;;52.17;16.27;;;768.90;2329.60;;;;;;4972178;28;20030;-73
2021/06/07 08:36:01;;;;;;;37.22;15.45;;;768.90;2329.60;;;;;;4974058;28;20477;-73
2021/06/07 08:38:27;;;;;;;34.95;14.00;;;768.60;2355.20;;;;;;4973989;28;20019;-74
2021/06/07 08:40:54;;;;;;;50.13;18.50;;;793.70;2355.20;;;;;;4974021;28;20542;-74
2021/06/07 08:43:23;;;;;;;19.13;11.77;;;794.00;2304.00;;;;;;4973815;28;20503;-75
2021/06/07 08:45:50;;;;;;;14.50;10.10;;;794.20;2252.80;;;;;;4974177;28;20026;-75
2021/06/07 08:48:16;;;;;;;19.88;11.80;;;794.10;2252.80;;;;;;4973749;28;20265;-74
2021/06/07 08:50:44;;;;;;;47.53;16.27;;;794.00;2252.80;;;;;;4974227;28;20431;-70
2021/06/07 08:53:10;;;;;;;20.85;11.38;;;794.20;2227.20;;;;;;4973759;28;20023;-73
2021/06/07 08:55:37;;;;;;;19.70;12.10;;;768.80;2278.40;;;;;;4973537;28;20196;-71
2021/06/07 08:58:05;;;;;;;17.10;11.60;;;793.70;2278.40;;;;;;4972559;28;20041;-68
2021/06/07 18:19:05;;;;;;;12.65;10.98;;;538.40;2406.40;;;;;;3753331;28;20041;-68
2021/06/07 18:21:31;;;;;;;12.75;10.73;;;538.40;2406.40;;;;;;5054622;28;20032;-69
2021/06/07 18:23:57;;;;;;;12.00;10.30;;;538.30;2406.40;;;;;;5054208;28;20025;-69
2021/06/07 18:26:23;;;;;;;12.63;10.52;;;538.30;2406.40;;;;;;5047322;28;20028;-68
2021/06/07 18:28:49;;;;;;;12.23;10.27;;;538.20;2406.40;;;;;;5044712;28;20037;-68
2021/06/07 18:31:16;;;;;;;11.02;9.88;;;538.20;2406.40;;;;;;5056787;28;20024;-69
2021/06/07 18:33:42;;;;;;;11.30;10.20;;;538.10;2406.40;;;;;;5053109;28;20036;-73
2021/06/07 18:36:08;;;;;;;13.20;9.90;;;538.00;2406.40;;;;;;5053579;28;20032;-78
2021/06/07 18:38:34;;;;;;;12.23;10.00;;;538.00;2406.40;;;;;;5053471;28;20517;-70
2021/06/07 18:41:01;;;;;;;11.95;10.25;;;538.00;2406.40;;;;;;5054523;28;20031;-72
2021/06/07 18:43:27;;;;;;;11.70;10.50;;;538.00;2406.40;;;;;;5054241;28;20386;-72
2021/06/07 18:45:53;;;;;;;12.18;10.68;;;537.90;2406.40;;;;;;5053971;28;20090;-74
2021/06/07 18:48:19;;;;;;;11.48;10.27;;;537.90;2406.40;;;;;;5054079;28;20029;-74
2021/06/07 18:50:48;;;;;;;12.98;10.43;;;537.80;2406.40;;;;;;5054281;28;20029;-69
2021/06/07 18:53:15;;;;;;;11.90;10.60;;;537.80;2406.40;;;;;;5054188;28;20095;-69
2021/06/07 18:55:40;;;;;;;12.98;10.20;;;537.80;2406.40;;;;;;5052620;28;20025;-73
2021/06/07 18:58:08;;;;;;;12.90;10.50;;;537.70;2406.40;;;;;;5052679;28;20025;-71
2021/06/07 19:00:35;;;;;;;11.75;10.30;;;537.60;2406.40;;;;;;5035881;28;20199;-67
2021/06/07 19:03:01;;;;;;;13.48;10.68;;;537.60;2406.40;;;;;;5032316;28;20028;-70
2021/06/07 19:05:27;;;;;;;13.35;10.68;;;512.90;2380.80;;;;;;5031246;28;20056;-69
2021/06/07 19:07:53;;;;;;;12.27;10.98;;;512.80;2380.80;;;;;;5031808;28;20060;-69
2021/06/07 19:10:20;;;;;;;12.52;11.23;;;512.60;2380.80;;;;;;5030895;28;20053;-70
2021/06/07 19:12:47;;;;;;;12.00;10.60;;;512.50;2380.80;;;;;;5028819;28;20021;-68
2021/06/07 19:15:13;;;;;;;14.48;10.48;;;512.50;2380.80;;;;;;5031523;28;20483;-68
2021/06/07 19:17:39;;;;;;;16.83;11.10;;;512.40;2380.80;;;;;;5026768;28;20547;-74
2021/06/07 19:20:07;;;;;;;12.88;11.32;;;512.20;2380.80;;;;;;5029198;28;20112;-70
2021/06/07 19:22:33;;;;;;;13.25;11.60;;;487.30;2380.80;;;;;;5028027;28;20018;-69
2021/06/07 19:24:58;;;;;;;13.32;11.95;;;487.30;2380.80;;;;;;5031705;28;20029;-68
2021/06/07 19:27:24;;;;;;;15.38;12.70;;;487.30;2380.80;;;;;;5028810;28;20042;-69
2021/06/07 19:29:50;;;;;;;15.48;12.80;;;487.30;2380.80;;;;;;5026810;28;20115;-68
2021/06/07 19:32:16;;;;;;;14.57;12.93;;;487.00;2380.80;;;;;;5031333;28;20475;-68
2021/06/07 19:34:45;;;;;;;14.73;12.95;;;487.00;2380.80;;;;;;5026302;28;20113;-67
2021/06/07 19:37:11;;;;;;;16.70;13.55;;;486.80;2380.80;;;;;;5026590;28;20017;-67
2021/06/07 19:39:37;;;;;;;20.65;15.95;;;486.90;2380.80;;;;;;5024483;28;20430;-69
2021/06/07 19:42:03;;;;;;;16.83;14.45;;;486.80;2380.80;;;;;;5025358;28;20033;-69
2021/06/07 19:44:28;;;;;;;16.58;14.88;;;486.70;2380.80;;;;;;5030643;28;20045;-68
2021/06/07 19:46:54;;;;;;;16.35;14.60;;;486.70;2380.80;;;;;;5027608;28;20434;-68
2021/06/07 19:49:20;;;;;;;17.05;15.07;;;486.70;2380.80;;;;;;5030935;28;20450;-71
2021/06/07 19:51:46;;;;;;;31.58;25.98;;;486.60;2380.80;;;;;;5026072;28;20414;-73
2021/06/07 19:54:12;;;;;;;42.50;35.15;;;486.70;2380.80;;;;;;5028295;28;20065;-71
2021/06/07 19:56:38;;;;;;;44.25;34.83;;;486.60;2380.80;;;;;;5024245;28;20053;-68
2021/06/07 19:59:04;;;;;;;33.20;28.05;;;486.60;2380.80;;;;;;5030498;28;20025;-69
2021/06/07 20:01:30;;;;;;;30.85;25.45;;;486.50;2380.80;;;;;;5030658;28;20434;-68
2021/06/07 20:03:59;;;;;;;22.83;18.85;;;486.50;2380.80;;;;;;5016896;28;20479;-69
2021/06/07 20:06:26;;;;;;;18.02;15.98;;;486.50;2380.80;;;;;;5034655;28;20075;-68
2021/06/07 20:08:54;;;;;;;17.95;15.25;;;486.50;2380.80;;;;;;5028975;28;20040;-72
2021/06/07 20:11:24;;;;;;;17.45;14.75;;;486.50;2380.80;;;;;;5027110;28;20025;-71
2021/06/07 20:13:50;;;;;;;17.58;13.63;;;486.50;2380.80;;;;;;5029043;28;20021;-71
2021/06/07 20:16:17;;;;;;;15.93;14.20;;;486.50;2380.80;;;;;;5030266;28;20564;-69
2021/06/07 20:18:43;;;;;;;17.13;14.63;;;486.50;2380.80;;;;;;5027013;28;20117;-73
2021/06/07 20:21:10;;;;;;;17.95;13.93;;;486.40;2380.80;;;;;;5029933;28;20108;-69
2021/06/07 20:23:36;;;;;;;15.75;13.73;;;486.40;2380.80;;;;;;5029743;28;20068;-69
2021/06/07 20:26:03;;;;;;;17.27;13.60;;;486.40;2380.80;;;;;;5029815;28;20057;-71
2021/06/07 20:28:29;;;;;;;16.52;14.38;;;461.70;2380.80;;;;;;5029230;28;20091;-72
2021/06/07 20:30:55;;;;;;;15.05;13.40;;;461.60;2380.80;;;;;;5029257;28;20470;-67
2021/06/07 20:33:21;;;;;;;16.13;13.75;;;461.60;2380.80;;;;;;5028819;28;20124;-73
2021/06/07 20:35:48;;;;;;;17.50;14.63;;;461.60;2380.80;;;;;;5029011;28;20033;-67
2021/06/07 20:38:14;;;;;;;17.67;14.73;;;461.60;2380.80;;;;;;5029256;28;20028;-72
2021/06/07 20:40:42;;;;;;;16.27;13.93;;;461.60;2380.80;;;;;;5026046;28;20009;-68
2021/06/07 20:43:08;;;;;;;14.82;12.45;;;461.60;2380.80;;;;;;5024757;28;20030;-72
2021/06/07 20:45:35;;;;;;;14.57;11.80;;;461.60;2380.80;;;;;;5011433;28;20021;-67
2021/06/07 20:48:02;;;;;;;14.95;11.60;;;461.50;2380.80;;;;;;5025946;28;20028;-67
2021/06/07 20:50:28;;;;;;;14.05;10.63;;;461.50;2380.80;;;;;;5026168;28;20104;-67
2021/06/07 20:52:54;;;;;;;12.80;10.65;;;461.50;2380.80;;;;;;5025752;28;20455;-71
2021/06/07 20:55:22;;;;;;;12.27;10.52;;;461.50;2380.80;;;;;;5025910;28;20394;-74
2021/06/07 20:57:49;;;;;;;13.98;11.25;;;461.50;2380.80;;;;;;5010645;28;20022;-70
2021/06/07 21:00:15;;;;;;;12.13;10.35;;;461.50;2380.80;;;;;;5025512;28;20029;-73
2021/06/07 21:02:42;;;;;;;14.50;10.93;;;461.40;2380.80;;;;;;5026068;28;20029;-68
2021/06/07 21:05:10;;;;;;;12.63;10.60;;;461.40;2380.80;;;;;;5025518;28;20152;-77
2021/06/07 21:07:37;;;;;;;16.17;11.80;;;461.40;2380.80;;;;;;5020729;28;20503;-68
2021/06/07 21:10:07;;;;;;;20.15;15.30;;;461.40;2380.80;;;;;;5027122;28;20057;-69
2021/06/07 21:12:33;;;;;;;19.25;16.35;;;461.30;2380.80;;;;;;5028679;28;20033;-68
2021/06/07 21:14:59;;;;;;;20.02;17.08;;;461.30;2380.80;;;;;;5028909;28;20029;-73